Wetterdaten: Woche 31.10.05 - 06.11.05 (KW44)
Datum Zeit Temperatur Luftfeuchte Luftdruck Niederschlag Windrichtung Wind
31.10.2005 00:00 8,3 C 100 % 1019 hPa 0,0 l/m N 0,0 km/h (0 Bft)
31.10.2005 01:00 8,1 C 100 % 1019 hPa 0,0 l/m N 0,0 km/h (0 Bft)
31.10.2005 02:00 7,8 C 100 % 1018 hPa 0,0 l/m N 0,0 km/h (0 Bft)
31.10.2005 03:00 7,5 C 100 % 1018 hPa 0,0 l/m N 0,0 km/h (0 Bft)
31.10.2005 04:00 7,2 C 100 % 1018 hPa 0,0 l/m N 0,1 km/h (0 Bft)
31.10.2005 05:00 6,8 C 100 % 1018 hPa 0,0 l/m N 0,1 km/h (0 Bft)
31.10.2005 06:00 6,3 C 100 % 1018 hPa 0,0 l/m N 1,7 km/h (1 Bft)
31.10.2005 07:00 6,3 C 100 % 1018 hPa 0,0 l/m N-NO 1,5 km/h (1 Bft)
31.10.2005 08:00 6,8 C 100 % 1018 hPa 0,0 l/m N-NW 3,7 km/h (1 Bft)
31.10.2005 09:00 7,3 C 100 % 1017 hPa 0,0 l/m N-NO 6,0 km/h (2 Bft)
31.10.2005 10:00 8,4 C 100 % 1017 hPa 0,0 l/m N-NW 5,5 km/h (1 Bft)
31.10.2005 11:00 10,4 C 97 % 1017 hPa 0,0 l/m N-NW 10,2 km/h (2 Bft)
31.10.2005 12:00 14,2 C 70 % 1016 hPa 0,0 l/m N-NO 10,3 km/h (2 Bft)
31.10.2005 13:00 16,0 C 60 % 1015 hPa 0,0 l/m N 9,8 km/h (2 Bft)
31.10.2005 14:00 16,0 C 61 % 1015 hPa 0,0 l/m N 11,2 km/h (2 Bft)
31.10.2005 15:00 14,5 C 69 % 1014 hPa 0,0 l/m N 12,3 km/h (3 Bft)
31.10.2005 16:00 12,4 C 77 % 1014 hPa 0,0 l/m N-NW 11,3 km/h (2 Bft)
31.10.2005 17:00 10,1 C 86 % 1014 hPa 0,0 l/m NW 9,4 km/h (2 Bft)
31.10.2005 18:00 9,0 C 93 % 1015 hPa 0,0 l/m N-NW 11,9 km/h (2 Bft)
31.10.2005 19:00 8,3 C 97 % 1016 hPa 0,0 l/m NW 13,3 km/h (3 Bft)
31.10.2005 20:00 7,9 C 99 % 1016 hPa 0,0 l/m O-NO 6,9 km/h (2 Bft)
31.10.2005 21:00 7,7 C 99 % 1016 hPa 0,0 l/m O-NO 7,0 km/h (2 Bft)
31.10.2005 22:00 7,7 C 100 % 1016 hPa 0,0 l/m N-NW 1,0 km/h (0 Bft)
31.10.2005 23:00 7,6 C 100 % 1015 hPa 0,0 l/m N 4,1 km/h (1 Bft)
01.11.2005 00:00 7,5 C 100 % 1015 hPa 0,0 l/m N 4,8 km/h (1 Bft)
01.11.2005 01:00 7,5 C 100 % 1015 hPa 0,0 l/m N 3,9 km/h (1 Bft)
01.11.2005 02:00 7,5 C 100 % 1015 hPa 0,0 l/m NW 10,1 km/h (2 Bft)
01.11.2005 03:00 7,3 C 100 % 1016 hPa 0,0 l/m N-NW 2,9 km/h (1 Bft)
01.11.2005 04:00 7,3 C 100 % 1016 hPa 0,0 l/m S-SW 4,4 km/h (1 Bft)
01.11.2005 05:00 7,7 C 100 % 1017 hPa 0,0 l/m S 10,5 km/h (2 Bft)
01.11.2005 06:00 8,1 C 100 % 1018 hPa 0,0 l/m S-SW 6,8 km/h (2 Bft)
01.11.2005 07:00 8,7 C 100 % 1018 hPa 0,0 l/m S-SW 5,2 km/h (1 Bft)
01.11.2005 08:00 9,5 C 100 % 1019 hPa 0,0 l/m O-SO 3,2 km/h (1 Bft)
01.11.2005 09:00 10,4 C 100 % 1019 hPa 0,0 l/m S 10,1 km/h (2 Bft)
01.11.2005 10:00 11,1 C 100 % 1020 hPa 0,0 l/m S 1,5 km/h (1 Bft)
01.11.2005 11:00 11,5 C 100 % 1020 hPa 0,0 l/m S-SW 11,2 km/h (2 Bft)
01.11.2005 12:00 12,2 C 100 % 1020 hPa 0,0 l/m S-SW 10,8 km/h (2 Bft)
01.11.2005 13:00 12,8 C 98 % 1020 hPa 0,0 l/m S 10,5 km/h (2 Bft)
01.11.2005 14:00 13,4 C 90 % 1019 hPa 0,0 l/m S 12,8 km/h (3 Bft)
01.11.2005 15:00 13,3 C 88 % 1020 hPa 0,0 l/m S-SW 10,1 km/h (2 Bft)
01.11.2005 16:00 13,0 C 87 % 1020 hPa 0,0 l/m S 7,6 km/h (2 Bft)
01.11.2005 17:00 12,4 C 87 % 1020 hPa 0,0 l/m N 0,1 km/h (0 Bft)
01.11.2005 18:00 11,0 C 89 % 1020 hPa 0,0 l/m N 0,0 km/h (0 Bft)
01.11.2005 19:00 9,4 C 92 % 1021 hPa 0,0 l/m N 0,0 km/h (0 Bft)
01.11.2005 20:00 8,9 C 95 % 1021 hPa 0,0 l/m N 0,0 km/h (0 Bft)
01.11.2005 21:00 8,8 C 97 % 1021 hPa 0,0 l/m N 0,0 km/h (0 Bft)
01.11.2005 22:00 8,9 C 98 % 1021 hPa 0,0 l/m N 0,0 km/h (0 Bft)
01.11.2005 23:00 8,9 C 99 % 1021 hPa 0,0 l/m N 0,0 km/h (0 Bft)
02.11.2005 00:00 8,2 C 100 % 1021 hPa 0,0 l/m N 0,0 km/h (0 Bft)
02.11.2005 01:00 7,5 C 100 % 1020 hPa 0,0 l/m N 0,0 km/h (0 Bft)
02.11.2005 02:00 7,2 C 100 % 1020 hPa 0,0 l/m N 0,0 km/h (0 Bft)
02.11.2005 03:00 6,6 C 100 % 1020 hPa 0,0 l/m N 0,0 km/h (0 Bft)
02.11.2005 04:00 6,5 C 100 % 1021 hPa 0,0 l/m N 0,0 km/h (0 Bft)
02.11.2005 05:00 5,7 C 100 % 1021 hPa 0,0 l/m N 0,0 km/h (0 Bft)
02.11.2005 06:00 5,2 C 100 % 1021 hPa 0,0 l/m N 0,0 km/h (0 Bft)
02.11.2005 07:00 5,6 C 100 % 1021 hPa 0,0 l/m N 0,0 km/h (0 Bft)
02.11.2005 08:00 6,1 C 100 % 1021 hPa 0,0 l/m N 0,0 km/h (0 Bft)
02.11.2005 09:00 7,5 C 100 % 1021 hPa 0,0 l/m S 1,3 km/h (1 Bft)
02.11.2005 10:00 9,3 C 100 % 1021 hPa 0,0 l/m O-SO 4,0 km/h (1 Bft)
02.11.2005 11:00 10,6 C 100 % 1021 hPa 0,0 l/m S 4,3 km/h (1 Bft)
02.11.2005 12:00 12,9 C 88 % 1020 hPa 0,0 l/m SO 8,2 km/h (2 Bft)
02.11.2005 13:00 13,1 C 75 % 1020 hPa 0,0 l/m S 14,2 km/h (3 Bft)
02.11.2005 14:00 13,4 C 80 % 1020 hPa 0,0 l/m S 11,7 km/h (2 Bft)
02.11.2005 15:00 13,2 C 82 % 1020 hPa 0,0 l/m S 9,9 km/h (2 Bft)
02.11.2005 16:00 12,9 C 84 % 1020 hPa 0,0 l/m S-SW 4,9 km/h (1 Bft)
02.11.2005 17:00 11,9 C 86 % 1020 hPa 0,0 l/m N 0,0 km/h (0 Bft)
02.11.2005 18:00 11,0 C 89 % 1020 hPa 0,0 l/m N 0,0 km/h (0 Bft)
02.11.2005 19:00 10,1 C 92 % 1020 hPa 0,0 l/m N 0,0 km/h (0 Bft)
02.11.2005 20:00 9,2 C 94 % 1020 hPa 0,0 l/m N 0,0 km/h (0 Bft)
02.11.2005 21:00 8,4 C 95 % 1020 hPa 0,0 l/m N 0,0 km/h (0 Bft)
02.11.2005 22:00 8,2 C 96 % 1019 hPa 0,0 l/m N 0,0 km/h (0 Bft)
02.11.2005 23:00 8,5 C 98 % 1019 hPa 0,0 l/m N 0,0 km/h (0 Bft)
03.11.2005 00:00 8,6 C 98 % 1018 hPa 0,0 l/m N 0,0 km/h (0 Bft)
03.11.2005 17:00 12,9 C 75 % 1019 hPa 2,0 l/m N 0,0 km/h (0 Bft)
03.11.2005 18:00 11,5 C 80 % 1019 hPa 0,0 l/m N 0,0 km/h (0 Bft)
03.11.2005 19:00 10,1 C 86 % 1020 hPa 0,0 l/m N 0,0 km/h (0 Bft)
03.11.2005 20:00 9,2 C 90 % 1019 hPa 0,0 l/m N 0,0 km/h (0 Bft)
03.11.2005 21:00 8,6 C 93 % 1020 hPa 0,0 l/m N 0,0 km/h (0 Bft)
03.11.2005 22:00 8,4 C 96 % 1020 hPa 0,0 l/m N 0,0 km/h (0 Bft)
03.11.2005 23:00 7,9 C 97 % 1019 hPa 0,0 l/m N 0,0 km/h (0 Bft)
04.11.2005 00:00 7,6 C 98 % 1018 hPa 0,0 l/m N 0,0 km/h (0 Bft)
04.11.2005 01:00 7,4 C 98 % 1018 hPa 0,0 l/m NW 0,7 km/h (0 Bft)
04.11.2005 02:00 7,3 C 99 % 1017 hPa 0,0 l/m W-NW 4,0 km/h (1 Bft)
04.11.2005 03:00 7,5 C 100 % 1016 hPa 0,0 l/m NW 10,3 km/h (2 Bft)
04.11.2005 04:00 7,5 C 100 % 1016 hPa 0,0 l/m NW 1,7 km/h (1 Bft)
04.11.2005 05:00 7,0 C 100 % 1015 hPa 0,0 l/m NW 9,9 km/h (2 Bft)
04.11.2005 06:00 6,7 C 100 % 1016 hPa 0,0 l/m NW 6,2 km/h (2 Bft)
04.11.2005 07:00 6,5 C 100 % 1016 hPa 0,0 l/m S 3,1 km/h (1 Bft)
04.11.2005 08:00 7,4 C 100 % 1017 hPa 0,0 l/m W 2,2 km/h (1 Bft)
04.11.2005 09:00 8,2 C 100 % 1018 hPa 0,0 l/m S 8,3 km/h (2 Bft)
04.11.2005 10:00 9,4 C 100 % 1018 hPa 0,0 l/m S 9,1 km/h (2 Bft)
04.11.2005 11:00 11,1 C 100 % 1018 hPa 0,0 l/m S-SO 8,3 km/h (2 Bft)
04.11.2005 12:00 13,2 C 88 % 1018 hPa 0,0 l/m S 9,5 km/h (2 Bft)
04.11.2005 13:00 13,9 C 84 % 1017 hPa 0,0 l/m S-SO 1,7 km/h (1 Bft)
04.11.2005 14:00 14,6 C 81 % 1016 hPa 0,0 l/m W 0,3 km/h (0 Bft)
04.11.2005 15:00 14,7 C 82 % 1017 hPa 0,0 l/m N 0,0 km/h (0 Bft)
04.11.2005 16:00 14,0 C 83 % 1017 hPa 0,0 l/m N 0,0 km/h (0 Bft)
04.11.2005 17:00 12,6 C 87 % 1018 hPa 0,0 l/m N 0,0 km/h (0 Bft)
04.11.2005 18:00 11,4 C 91 % 1018 hPa 0,0 l/m N 0,0 km/h (0 Bft)
04.11.2005 19:00 10,8 C 94 % 1018 hPa 0,0 l/m N 0,0 km/h (0 Bft)
04.11.2005 20:00 10,6 C 97 % 1018 hPa 0,0 l/m N 0,0 km/h (0 Bft)
04.11.2005 21:00 10,5 C 98 % 1018 hPa 0,0 l/m N 0,0 km/h (0 Bft)
04.11.2005 22:00 10,6 C 99 % 1019 hPa 0,0 l/m N 0,0 km/h (0 Bft)
04.11.2005 23:00 10,7 C 100 % 1019 hPa 0,0 l/m N 0,0 km/h (0 Bft)
05.11.2005 00:00 10,7 C 100 % 1019 hPa 0,0 l/m N 0,0 km/h (0 Bft)
05.11.2005 01:00 10,7 C 100 % 1020 hPa 0,0 l/m SW 0,4 km/h (0 Bft)
05.11.2005 02:00 10,5 C 100 % 1020 hPa 1,0 l/m S-SW 1,2 km/h (1 Bft)
05.11.2005 03:00 10,4 C 100 % 1020 hPa 1,0 l/m S-SW 5,2 km/h (1 Bft)
05.11.2005 04:00 9,9 C 100 % 1021 hPa 1,0 l/m W 10,4 km/h (2 Bft)
05.11.2005 05:00 9,4 C 99 % 1022 hPa 1,0 l/m W 4,8 km/h (1 Bft)
05.11.2005 06:00 9,2 C 99 % 1022 hPa 1,0 l/m W-SW 0,8 km/h (0 Bft)
05.11.2005 07:00 9,1 C 100 % 1023 hPa 1,0 l/m W-SW 5,1 km/h (1 Bft)
05.11.2005 08:00 9,0 C 100 % 1024 hPa 1,0 l/m W 6,3 km/h (2 Bft)
05.11.2005 09:00 8,7 C 98 % 1024 hPa 0,0 l/m W-NW 8,7 km/h (2 Bft)
05.11.2005 10:00 8,5 C 89 % 1025 hPa 0,0 l/m NW 12,0 km/h (2 Bft)
05.11.2005 11:00 8,4 C 86 % 1025 hPa 0,0 l/m W 2,8 km/h (1 Bft)
05.11.2005 12:00 9,0 C 85 % 1026 hPa 0,0 l/m SW 1,1 km/h (1 Bft)
05.11.2005 13:00 10,0 C 75 % 1026 hPa 0,0 l/m W-SW 5,8 km/h (1 Bft)
05.11.2005 14:00 10,2 C 73 % 1026 hPa 0,0 l/m S 8,7 km/h (2 Bft)
05.11.2005 15:00 9,4 C 85 % 1027 hPa 0,0 l/m S-SW 13,4 km/h (3 Bft)
05.11.2005 16:00 8,6 C 90 % 1027 hPa 1,0 l/m S-SW 12,0 km/h (2 Bft)
05.11.2005 17:00 7,7 C 93 % 1027 hPa 0,0 l/m S-SW 9,0 km/h (2 Bft)
05.11.2005 18:00 6,7 C 95 % 1028 hPa 0,0 l/m N 0,1 km/h (0 Bft)
05.11.2005 19:00 5,9 C 97 % 1028 hPa 0,0 l/m N 0,1 km/h (0 Bft)
05.11.2005 20:00 5,0 C 98 % 1028 hPa 0,0 l/m N 0,0 km/h (0 Bft)
05.11.2005 21:00 4,2 C 98 % 1028 hPa 0,0 l/m N 0,0 km/h (0 Bft)
05.11.2005 22:00 3,6 C 99 % 1029 hPa 0,0 l/m N 0,0 km/h (0 Bft)
05.11.2005 23:00 3,1 C 99 % 1028 hPa 0,0 l/m N 0,0 km/h (0 Bft)
06.11.2005 00:00 3,1 C 100 % 1028 hPa 0,0 l/m N 0,0 km/h (0 Bft)
06.11.2005 01:00 2,5 C 100 % 1028 hPa 0,0 l/m N 0,0 km/h (0 Bft)
06.11.2005 02:00 2,6 C 100 % 1028 hPa 0,0 l/m W-SW 0,6 km/h (0 Bft)
06.11.2005 03:00 2,6 C 100 % 1028 hPa 0,0 l/m N 0,0 km/h (0 Bft)
06.11.2005 04:00 2,7 C 100 % 1028 hPa 0,0 l/m N 0,0 km/h (0 Bft)
06.11.2005 05:00 2,9 C 100 % 1028 hPa 0,0 l/m N 0,0 km/h (0 Bft)
06.11.2005 06:00 2,7 C 100 % 1027 hPa 0,0 l/m N 0,0 km/h (0 Bft)
06.11.2005 07:00 2,4 C 100 % 1027 hPa 0,0 l/m N-NW 2,6 km/h (1 Bft)
06.11.2005 08:00 2,7 C 100 % 1027 hPa 0,0 l/m NW 3,9 km/h (1 Bft)
06.11.2005 09:00 3,6 C 100 % 1027 hPa 0,0 l/m N-NW 7,1 km/h (2 Bft)
06.11.2005 10:00 4,7 C 100 % 1027 hPa 0,0 l/m N-NW 8,5 km/h (2 Bft)
06.11.2005 11:00 5,2 C 100 % 1027 hPa 0,0 l/m N 11,8 km/h (2 Bft)
06.11.2005 12:00 5,7 C 100 % 1026 hPa 0,0 l/m N-NW 12,7 km/h (3 Bft)
06.11.2005 13:00 6,3 C 100 % 1025 hPa 0,0 l/m N 13,1 km/h (3 Bft)
06.11.2005 14:00 6,5 C 95 % 1025 hPa 0,0 l/m N 11,0 km/h (2 Bft)
06.11.2005 15:00 6,5 C 94 % 1025 hPa 0,0 l/m N 8,1 km/h (2 Bft)
06.11.2005 16:00 6,4 C 95 % 1025 hPa 0,0 l/m N 9,2 km/h (2 Bft)
06.11.2005 17:00 6,2 C 96 % 1025 hPa 0,0 l/m N 7,4 km/h (2 Bft)
06.11.2005 18:00 6,1 C 97 % 1025 hPa 0,0 l/m N 3,7 km/h (1 Bft)
06.11.2005 19:00 6,1 C 98 % 1025 hPa 0,0 l/m N-NO 2,3 km/h (1 Bft)
06.11.2005 20:00 6,2 C 99 % 1025 hPa 0,0 l/m N-NO 0,9 km/h (0 Bft)
06.11.2005 21:00 6,3 C 99 % 1025 hPa 0,0 l/m N 0,0 km/h (0 Bft)
06.11.2005 22:00 6,3 C 99 % 1025 hPa 0,0 l/m N 0,0 km/h (0 Bft)
06.11.2005 23:00 6,3 C 100 % 1025 hPa 0,0 l/m N 0,2 km/h (0 Bft)
Min-Datum _ 06.11.05 31.10.05 31.10.05 - - 31.10.05
_ Min-Zeit 01:56 13:45 14:16 - - 00:00
Minimum _ 2,2 C 57 % 1014 hPa - - 0,0 km/h (0 Bft)
Max-Datum _ 31.10.05 31.10.05 05.11.05 03.11.05 - 05.11.05
_ Max-Zeit 14:00 00:00 22:01 17:31 - 10:30
Maximum _ 16,4 C 100 % 1029 hPa 2,0 l/m - 24,7 km/h
NW (4 Bft)
Durchschnitt _ 8,6 C 95 % 1021 hPa #10,0 l/m S 4,0 km/h (1 Bft)

Durchschnitt Minimum Temp.8,3 C
Durchschnitt Maximum Temp.8,9 C